Time;durP1;ratioP1;P1;durP2;ratioP2;P2;SDS_P1;SDS_P2;PMS_P1;PMS_P2;Temp;Humidity;BMP_temperature;BMP_pressure;BME280_temperature;BME280_humidity;BME280_pressure;Samples;Min_cycle;Max_cycle;Signal;HPM_P1;HPM_P2
2022/08/10 00:02:42;;;;;;;3.60;2.93;;;14.40;99.90;;;;;;5032107;28;20285;-44
2022/08/10 00:05:08;;;;;;;3.60;3.10;;;14.40;1.00;;;;;;5031295;28;20445;-44
2022/08/10 00:07:34;;;;;;;4.50;3.00;;;14.30;1.00;;;;;;5031290;28;21009;-44
2022/08/10 00:09:59;;;;;;;3.30;3.00;;;14.30;1.00;;;;;;5031969;28;20214;-44
2022/08/10 00:12:25;;;;;;;2.90;2.70;;;14.20;1.00;;;;;;5030319;28;20187;-51
2022/08/10 00:14:51;;;;;;;3.77;3.47;;;14.20;1.00;;;;;;5030205;28;20179;-51
2022/08/10 00:17:17;;;;;;;4.13;3.03;;;14.20;1.00;;;;;;5030850;28;20512;-51
2022/08/10 00:19:42;;;;;;;4.80;3.20;;;14.10;1.00;;;;;;5031345;28;20171;-51
2022/08/10 00:22:09;;;;;;;5.97;3.20;;;14.10;1.00;;;;;;5031376;28;20187;-51
2022/08/10 00:24:35;;;;;;;5.33;3.33;;;14.00;1.00;;;;;;5030969;28;20183;-51
2022/08/10 00:27:00;;;;;;;6.60;3.40;;;14.00;1.00;;;;;;5030713;28;20498;-51
2022/08/10 00:29:26;;;;;;;4.10;3.20;;;14.00;22.60;;;;;;5030512;28;20187;-52
2022/08/10 00:31:52;;;;;;;7.10;3.23;;;14.00;1.00;;;;;;5031441;28;20271;-51
2022/08/10 00:34:17;;;;;;;4.90;3.13;;;14.00;48.00;;;;;;5027863;28;20621;-51
2022/08/10 00:36:43;;;;;;;3.60;3.30;;;14.00;1.00;;;;;;5031657;28;20194;-51
2022/08/10 00:39:08;;;;;;;3.53;3.20;;;14.00;1.00;;;;;;5030236;28;20202;-51
2022/08/10 00:41:34;;;;;;;3.33;3.03;;;14.00;1.00;;;;;;5028481;28;20271;-53
2022/08/10 00:44:00;;;;;;;3.57;2.80;;;14.00;73.00;;;;;;5028677;28;20583;-51
2022/08/10 00:46:25;;;;;;;5.67;3.37;;;13.90;38.70;;;;;;5029944;28;20199;-51
2022/08/10 00:48:51;;;;;;;2.80;2.60;;;13.90;29.60;;;;;;5030544;28;20179;-51
2022/08/10 00:51:17;;;;;;;3.47;2.80;;;13.90;16.00;;;;;;5031084;28;20215;-51
2022/08/10 00:53:43;;;;;;;4.17;3.57;;;13.80;99.90;;;;;;5029755;28;20296;-52
2022/08/10 00:56:09;;;;;;;3.60;3.30;;;13.80;99.90;;;;;;5030701;28;20244;-51
2022/08/10 00:58:37;;;;;;;3.80;3.40;;;13.70;99.90;;;;;;5030160;28;20703;-51
2022/08/10 01:01:03;;;;;;;4.50;3.60;;;13.70;99.90;;;;;;5029828;28;20458;-52
2022/08/10 01:03:28;;;;;;;4.77;2.90;;;13.70;99.90;;;;;;5031149;28;20410;-51
2022/08/10 01:06:02;;;;;;;3.83;3.50;;;13.70;99.90;;;;;;5031273;28;20194;-51
2022/08/10 01:08:38;;;;;;;3.57;2.97;;;13.60;99.90;;;;;;5030168;28;20185;-45
2022/08/10 01:11:13;;;;;;;6.47;3.40;;;13.60;99.90;;;;;;5027437;28;20552;-44
2022/08/10 01:13:55;;;;;;;3.10;2.80;;;13.60;99.90;;;;;;5022185;28;20441;-44
2022/08/10 01:16:38;;;;;;;3.93;3.00;;;13.60;99.90;;;;;;5005048;28;20441;-44
2022/08/10 01:19:32;;;;;;;3.97;2.90;;;13.50;99.90;;;;;;5030904;28;20903;-44
2022/08/10 01:22:22;;;;;;;4.30;3.17;;;13.50;99.90;;;;;;5011782;28;21232;-44
2022/08/10 01:24:54;;;;;;;4.50;3.30;;;13.50;99.90;;;;;;5011400;28;20449;-44
2022/08/10 01:27:50;;;;;;;3.00;2.70;;;13.40;1.00;;;;;;5011113;28;20426;-43
2022/08/10 01:30:19;;;;;;;3.23;2.70;;;13.40;1.00;;;;;;5028002;28;20555;-44
2022/08/10 01:33:02;;;;;;;4.43;3.03;;;13.40;1.00;;;;;;5027941;28;20499;-44
2022/08/10 01:35:46;;;;;;;4.60;2.93;;;13.40;1.00;;;;;;5030076;28;20791;-46
2022/08/10 01:38:28;;;;;;;4.20;3.10;;;13.40;1.00;;;;;;5030706;28;21313;-44
2022/08/10 01:41:01;;;;;;;7.90;3.30;;;13.30;1.00;;;;;;5029879;28;20452;-43
2022/08/10 01:43:30;;;;;;;5.63;2.93;;;13.30;1.00;;;;;;5031390;28;21192;-44
2022/08/10 01:45:58;;;;;;;5.00;3.57;;;13.30;1.00;;;;;;5015705;28;20449;-44
2022/08/10 01:48:37;;;;;;;5.80;3.20;;;13.30;1.00;;;;;;5018415;28;20452;-52
2022/08/10 01:51:21;;;;;;;4.77;3.20;;;13.30;1.00;;;;;;5033442;28;21125;-52
2022/08/10 01:53:57;;;;;;;4.17;3.33;;;13.20;1.00;;;;;;5034663;28;21032;-52
2022/08/10 01:56:27;;;;;;;4.07;3.67;;;13.20;1.00;;;;;;5033450;28;20970;-51
2022/08/10 01:59:01;;;;;;;5.33;3.30;;;13.20;1.00;;;;;;5033499;28;20939;-51
2022/08/10 02:01:31;;;;;;;7.83;3.40;;;13.20;1.00;;;;;;5033542;28;20440;-52
2022/08/10 02:04:02;;;;;;;3.50;3.20;;;13.10;1.00;;;;;;5034488;28;20792;-52
2022/08/10 02:06:29;;;;;;;3.60;3.10;;;13.10;1.00;;;;;;5033338;28;20535;-52
2022/08/10 02:08:57;;;;;;;4.40;3.93;;;13.10;35.40;;;;;;5033747;28;20515;-52
2022/08/10 02:11:27;;;;;;;4.63;3.40;;;13.10;99.90;;;;;;5033163;28;20543;-51
2022/08/10 02:13:54;;;;;;;3.53;3.23;;;13.10;99.90;;;;;;5032980;28;20469;-52
2022/08/10 02:16:22;;;;;;;3.80;3.27;;;13.10;99.90;;;;;;5033371;28;20433;-52
2022/08/10 02:18:48;;;;;;;4.10;3.70;;;13.10;99.90;;;;;;5033218;28;20468;-52
2022/08/10 02:21:15;;;;;;;7.33;3.47;;;13.10;99.90;;;;;;5032298;28;20839;-52
2022/08/10 02:23:42;;;;;;;4.90;3.20;;;13.10;99.90;;;;;;5033054;28;20544;-52
2022/08/10 02:26:09;;;;;;;4.90;3.50;;;13.00;99.90;;;;;;5032849;28;20824;-52
2022/08/10 02:28:38;;;;;;;7.60;3.70;;;13.00;99.90;;;;;;5016481;28;20443;-52
2022/08/10 02:31:14;;;;;;;3.80;3.50;;;12.90;99.90;;;;;;5014342;28;20458;-51
2022/08/10 02:33:45;;;;;;;5.40;3.27;;;12.90;99.90;;;;;;5024288;28;20943;-52
2022/08/10 02:36:11;;;;;;;4.83;3.70;;;12.80;99.90;;;;;;5033457;28;20476;-52
2022/08/10 02:38:44;;;;;;;5.03;3.40;;;12.80;99.90;;;;;;5021991;28;20999;-52
2022/08/10 02:41:19;;;;;;;6.33;3.53;;;12.80;1.00;;;;;;5031565;28;20488;-52
2022/08/10 02:43:56;;;;;;;3.83;3.20;;;12.80;99.90;;;;;;5013959;28;20503;-52
2022/08/10 02:46:32;;;;;;;6.00;3.23;;;12.80;99.90;;;;;;5031656;28;20850;-52
2022/08/10 02:49:04;;;;;;;4.70;3.47;;;12.80;52.70;;;;;;5033550;28;20414;-51
2022/08/10 02:51:44;;;;;;;5.10;3.80;;;12.70;18.80;;;;;;5032591;28;20469;-52
2022/08/10 02:54:16;;;;;;;4.53;3.47;;;12.70;1.00;;;;;;5033341;28;20461;-53
2022/08/10 02:56:57;;;;;;;8.23;3.50;;;12.70;12.60;;;;;;5032523;28;20838;-52
2022/08/10 02:59:40;;;;;;;3.67;3.37;;;12.70;1.00;;;;;;5033360;28;20765;-51
2022/08/10 03:02:11;;;;;;;6.80;3.50;;;12.70;99.90;;;;;;5032500;28;20433;-51
2022/08/10 03:04:53;;;;;;;4.30;3.40;;;12.70;84.80;;;;;;5033084;28;20445;-51
2022/08/10 03:07:21;;;;;;;5.07;3.87;;;12.70;1.00;;;;;;5031432;28;20456;-56
2022/08/10 03:09:49;;;;;;;8.50;3.90;;;12.70;1.00;;;;;;5032714;28;20410;-52
2022/08/10 03:12:16;;;;;;;7.03;3.77;;;12.70;1.00;;;;;;5032239;28;20449;-51
2022/08/10 03:14:43;;;;;;;3.43;3.13;;;12.70;1.00;;;;;;5031887;28;20987;-52
2022/08/10 03:17:09;;;;;;;4.00;3.57;;;12.70;99.90;;;;;;5028696;28;20499;-51
2022/08/10 03:19:37;;;;;;;7.20;4.00;;;12.70;99.90;;;;;;5032940;28;20417;-51
2022/08/10 03:22:03;;;;;;;4.13;3.60;;;12.70;99.90;;;;;;5032891;28;20410;-52
2022/08/10 03:24:30;;;;;;;4.23;3.50;;;12.70;99.90;;;;;;5032875;28;20406;-52
2022/08/10 03:26:56;;;;;;;4.70;4.17;;;12.70;99.90;;;;;;5030911;28;20452;-52
2022/08/10 03:29:22;;;;;;;3.57;3.27;;;12.60;99.90;;;;;;5032993;28;20406;-52
2022/08/10 03:31:49;;;;;;;5.40;3.20;;;12.60;99.90;;;;;;5030172;28;20484;-51
2022/08/10 03:34:17;;;;;;;4.83;3.40;;;12.50;1.00;;;;;;5032627;28;20454;-43
2022/08/10 03:36:44;;;;;;;3.90;3.07;;;12.50;17.50;;;;;;5013747;28;20438;-43
2022/08/10 03:39:11;;;;;;;5.90;4.17;;;12.50;99.90;;;;;;5030972;28;20445;-43
2022/08/10 03:41:42;;;;;;;4.50;3.40;;;12.50;99.90;;;;;;5032559;28;20453;-51
2022/08/10 03:44:09;;;;;;;5.17;3.83;;;12.50;99.90;;;;;;5031878;28;20869;-52
2022/08/10 03:46:40;;;;;;;7.07;3.70;;;12.50;1.00;;;;;;5029564;28;20500;-52
2022/08/10 03:49:06;;;;;;;4.70;3.73;;;12.40;1.00;;;;;;5029813;28;20475;-52
2022/08/10 03:51:33;;;;;;;4.30;3.60;;;12.40;1.00;;;;;;5031169;28;20477;-51
2022/08/10 03:54:00;;;;;;;4.80;3.87;;;12.40;1.00;;;;;;5032182;28;20841;-52
2022/08/10 03:56:27;;;;;;;6.83;3.37;;;12.40;1.00;;;;;;5006252;28;21166;-52
2022/08/10 03:58:52;;;;;;;6.40;4.03;;;12.40;1.00;;;;;;5029394;28;20529;-52
2022/08/10 04:01:19;;;;;;;6.60;3.43;;;12.40;1.00;;;;;;5030985;28;20909;-52
2022/08/10 04:03:45;;;;;;;4.57;3.80;;;12.40;54.00;;;;;;5027728;28;20223;-52
2022/08/10 04:06:12;;;;;;;4.37;3.97;;;12.40;99.90;;;;;;5044950;28;20481;-52
2022/08/10 04:08:42;;;;;;;5.70;3.40;;;12.50;99.90;;;;;;5031935;28;20179;-51
2022/08/10 04:11:11;;;;;;;4.40;4.00;;;12.50;99.90;;;;;;5031987;28;20558;-43
2022/08/10 04:13:37;;;;;;;5.13;3.83;;;12.60;1.00;;;;;;5032135;28;21182;-42
2022/08/10 04:16:06;;;;;;;4.37;3.97;;;12.50;1.00;;;;;;5028398;28;21074;-42
2022/08/10 04:18:32;;;;;;;9.00;4.57;;;12.50;1.00;;;;;;5030864;28;20447;-43
2022/08/10 04:21:03;;;;;;;5.80;4.00;;;12.60;1.00;;;;;;5031975;28;21100;-42
2022/08/10 04:23:33;;;;;;;7.27;4.43;;;12.60;99.90;;;;;;5031734;28;20409;-42
2022/08/10 04:25:59;;;;;;;6.60;4.00;;;12.60;99.90;;;;;;5030829;28;20464;-42
2022/08/10 04:28:25;;;;;;;5.87;3.97;;;12.60;99.90;;;;;;5030823;28;20464;-42
2022/08/10 04:30:53;;;;;;;8.30;4.23;;;12.70;99.90;;;;;;5013064;28;20473;-42
2022/08/10 04:33:22;;;;;;;4.80;3.70;;;12.70;1.00;;;;;;5031818;28;20573;-42
2022/08/10 04:35:49;;;;;;;7.40;4.20;;;12.70;1.00;;;;;;5029484;28;20445;-42
2022/08/10 04:38:16;;;;;;;5.40;4.20;;;12.80;1.00;;;;;;5031464;28;20428;-43
2022/08/10 04:40:43;;;;;;;6.23;3.60;;;12.80;99.90;;;;;;5030729;28;20461;-42
2022/08/10 04:43:09;;;;;;;5.40;4.70;;;12.80;22.20;;;;;;5030423;28;20541;-42
2022/08/10 04:45:35;;;;;;;5.87;4.93;;;12.90;1.00;;;;;;5029197;28;20442;-43
2022/08/10 04:48:01;;;;;;;4.97;4.20;;;13.00;1.00;;;;;;5029541;28;20472;-43
2022/08/10 04:50:26;;;;;;;4.27;3.87;;;13.00;99.90;;;;;;5031224;28;20687;-43
2022/08/10 04:52:52;;;;;;;8.07;4.53;;;13.00;99.90;;;;;;5031119;28;20989;-43
2022/08/10 04:55:18;;;;;;;4.90;4.40;;;13.10;1.00;;;;;;5031260;28;20200;-56
2022/08/10 04:57:44;;;;;;;6.13;4.93;;;13.10;99.90;;;;;;5028766;28;20199;-51
2022/08/10 05:00:10;;;;;;;6.00;4.20;;;13.30;99.90;;;;;;5030240;28;20813;-51
2022/08/10 05:02:35;;;;;;;6.50;4.97;;;13.40;1.00;;;;;;5031262;28;20507;-51
2022/08/10 05:05:01;;;;;;;8.40;4.87;;;13.50;99.90;;;;;;5030493;28;20443;-51
2022/08/10 05:07:27;;;;;;;6.73;4.10;;;13.60;99.90;;;;;;5030139;28;20203;-51
2022/08/10 05:09:55;;;;;;;5.17;4.20;;;13.70;1.00;;;;;;5030125;28;20194;-48
2022/08/10 05:12:21;;;;;;;7.70;4.63;;;13.80;99.90;;;;;;5029130;28;20195;-51
2022/08/10 05:14:47;;;;;;;6.53;3.80;;;13.90;1.00;;;;;;5030952;28;20452;-42
2022/08/10 05:17:13;;;;;;;5.70;4.73;;;14.00;99.90;;;;;;5030149;28;20450;-42
2022/08/10 05:19:39;;;;;;;5.10;4.43;;;14.10;1.00;;;;;;5031088;28;20984;-42
2022/08/10 05:22:04;;;;;;;9.40;5.30;;;14.20;99.90;;;;;;5030938;28;20279;-42
2022/08/10 05:24:31;;;;;;;6.90;4.73;;;14.20;99.90;;;;;;5028954;28;20198;-42
2022/08/10 05:26:57;;;;;;;5.70;5.10;;;14.30;99.90;;;;;;5029048;28;20245;-43
2022/08/10 05:29:22;;;;;;;7.93;5.00;;;14.40;99.90;;;;;;5030995;28;20867;-42
2022/08/10 05:31:48;;;;;;;5.00;4.50;;;14.50;99.90;;;;;;5030602;28;20223;-43
2022/08/10 05:34:15;;;;;;;7.87;5.40;;;14.60;56.60;;;;;;5027956;28;20194;-42
2022/08/10 05:36:41;;;;;;;4.93;4.43;;;14.70;99.90;;;;;;5027935;28;20442;-42
2022/08/10 05:39:08;;;;;;;7.63;5.10;;;14.90;99.90;;;;;;5029815;28;20449;-43
2022/08/10 05:41:34;;;;;;;14.80;4.33;;;15.10;99.90;;;;;;5030879;28;20647;-42
2022/08/10 05:44:01;;;;;;;5.40;4.30;;;15.40;99.90;;;;;;5028687;28;20445;-45
2022/08/10 05:46:27;;;;;;;6.00;4.57;;;15.70;1.00;;;;;;5030579;28;20919;-43
2022/08/10 05:48:52;;;;;;;14.20;4.87;;;16.00;1.00;;;;;;5029671;28;20494;-43
2022/08/10 05:51:18;;;;;;;4.70;4.20;;;16.30;99.90;;;;;;5029668;28;20219;-43
2022/08/10 05:53:44;;;;;;;6.07;3.90;;;16.70;1.00;;;;;;5029410;28;20242;-43
2022/08/10 05:56:11;;;;;;;5.00;3.97;;;17.00;1.00;;;;;;5029917;28;20449;-43
2022/08/10 05:58:37;;;;;;;4.10;3.70;;;17.30;99.90;;;;;;5029625;28;20444;-43
2022/08/10 06:01:05;;;;;;;5.53;3.67;;;17.50;99.90;;;;;;5029870;28;20449;-43
2022/08/10 06:03:36;;;;;;;8.07;3.60;;;17.80;1.00;;;;;;5029808;28;20418;-43
2022/08/10 06:06:05;;;;;;;6.20;3.57;;;18.00;1.00;;;;;;5027346;28;20441;-43
2022/08/10 06:08:34;;;;;;;3.50;3.20;;;18.20;1.00;;;;;;5030579;28;20417;-43
2022/08/10 06:11:02;;;;;;;5.63;3.50;;;18.40;1.00;;;;;;5030399;28;20465;-43
2022/08/10 06:16:17;;;;;;;6.73;3.93;;;19.00;1.00;;;;;;5028663;28;20468;-43
2022/08/10 06:18:44;;;;;;;6.93;3.40;;;19.30;1.00;;;;;;5029346;28;20425;-43
2022/08/10 06:21:10;;;;;;;9.27;3.20;;;19.50;1.00;;;;;;5030405;28;20421;-43
2022/08/10 06:23:37;;;;;;;3.70;3.20;;;19.70;99.90;;;;;;5028663;28;20438;-43
2022/08/10 06:26:05;;;;;;;4.10;3.20;;;19.90;99.90;;;;;;5026984;28;20484;-43
2022/08/10 06:28:34;;;;;;;3.90;2.53;;;20.10;99.90;;;;;;5028512;28;20433;-42
2022/08/10 06:31:01;;;;;;;3.20;2.90;;;20.30;99.90;;;;;;5033821;28;20473;-43
2022/08/10 06:33:30;;;;;;;3.30;2.83;;;20.60;99.90;;;;;;5033784;28;20451;-44
2022/08/10 06:35:58;;;;;;;4.10;2.57;;;20.80;99.90;;;;;;5032938;28;20449;-43
2022/08/10 06:38:27;;;;;;;14.73;2.60;;;21.00;99.90;;;;;;5033650;28;20416;-43
2022/08/10 06:40:57;;;;;;;2.60;2.40;;;21.20;99.90;;;;;;5033613;28;20424;-48
2022/08/10 06:43:23;;;;;;;2.87;2.20;;;21.40;99.90;;;;;;5033258;28;20441;-48
2022/08/10 06:46:01;;;;;;;2.63;2.43;;;21.60;99.90;;;;;;5032747;28;20433;-43
2022/08/10 06:48:37;;;;;;;2.50;2.30;;;21.80;99.90;;;;;;5024469;28;20446;-43
2022/08/10 06:51:12;;;;;;;5.50;2.67;;;22.00;99.90;;;;;;5030606;28;20481;-43
2022/08/10 06:53:44;;;;;;;4.43;2.37;;;22.20;99.90;;;;;;5031230;28;20982;-43
2022/08/10 06:56:20;;;;;;;4.43;2.40;;;22.60;99.90;;;;;;5026341;28;20438;-43
2022/08/10 06:58:53;;;;;;;6.90;2.70;;;22.70;99.90;;;;;;5032202;28;20448;-44
2022/08/10 07:01:21;;;;;;;4.53;2.20;;;23.00;99.90;;;;;;5026817;28;20919;-43
2022/08/10 07:04:31;;;;;;;4.07;2.40;;;23.20;99.90;;;;;;5033232;28;20448;-43
2022/08/10 07:07:00;;;;;;;5.90;2.30;;;23.50;99.90;;;;;;5032932;28;20432;-43
2022/08/10 07:09:29;;;;;;;3.33;2.60;;;23.70;99.90;;;;;;5032642;28;20425;-44
2022/08/10 07:11:56;;;;;;;2.80;1.80;;;23.90;99.90;;;;;;5032320;28;20477;-48
2022/08/10 07:14:24;;;;;;;3.77;2.17;;;24.00;99.90;;;;;;5031004;28;20528;-49
2022/08/10 07:16:50;;;;;;;3.60;2.40;;;24.00;99.90;;;;;;5030507;28;20437;-49
2022/08/10 07:19:17;;;;;;;2.33;2.13;;;24.30;99.90;;;;;;5032027;28;20476;-48
2022/08/10 07:21:45;;;;;;;6.00;2.53;;;24.40;99.90;;;;;;5032383;28;20493;-49
2022/08/10 07:24:13;;;;;;;5.53;2.00;;;24.60;99.90;;;;;;5028140;28;20534;-49
2022/08/10 07:26:44;;;;;;;3.50;2.50;;;24.80;99.90;;;;;;5030958;28;20776;-48
2022/08/10 07:29:12;;;;;;;7.70;2.40;;;24.90;99.90;;;;;;5031841;28;20926;-49
2022/08/10 07:31:39;;;;;;;2.77;2.10;;;25.20;99.90;;;;;;5031697;28;21016;-47
2022/08/10 07:34:06;;;;;;;4.83;2.60;;;25.50;99.90;;;;;;5031067;28;20520;-48
2022/08/10 07:36:34;;;;;;;4.70;2.37;;;25.60;99.90;;;;;;5031439;28;20818;-48
2022/08/10 07:39:01;;;;;;;6.57;2.10;;;25.60;99.90;;;;;;5029050;28;20499;-47
2022/08/10 07:41:30;;;;;;;4.10;2.60;;;25.60;99.90;;;;;;5030213;28;20473;-47
2022/08/10 07:43:58;;;;;;;3.57;2.30;;;25.50;99.90;;;;;;5031863;28;20469;-48
2022/08/10 07:46:27;;;;;;;3.57;2.03;;;25.80;99.90;;;;;;5032499;28;20410;-48
2022/08/10 07:49:17;;;;;;;3.30;2.13;;;26.00;99.90;;;;;;5032418;28;20460;-47
2022/08/10 07:51:42;;;;;;;6.77;2.60;;;25.90;99.90;;;;;;5031154;28;20469;-47
2022/08/10 07:54:14;;;;;;;7.43;2.20;;;25.90;99.90;;;;;;5031106;28;20504;-50
2022/08/10 07:56:44;;;;;;;3.73;2.30;;;25.80;99.90;;;;;;5032196;28;20539;-48
2022/08/10 07:59:14;;;;;;;4.37;2.60;;;25.90;99.90;;;;;;5032037;28;20850;-48
2022/08/10 08:01:47;;;;;;;3.63;2.40;;;26.20;99.90;;;;;;5030127;28;20454;-48
2022/08/10 08:04:14;;;;;;;2.30;2.10;;;26.40;99.90;;;;;;5030935;28;20441;-48
2022/08/10 08:06:41;;;;;;;5.87;2.20;;;26.60;99.90;;;;;;5031807;28;20783;-48
2022/08/10 08:09:07;;;;;;;7.27;2.60;;;26.70;99.90;;;;;;5051766;28;20402;-49
2022/08/10 08:11:35;;;;;;;4.47;1.90;;;26.50;99.90;;;;;;5041263;28;20469;-49
2022/08/10 08:14:03;;;;;;;6.00;2.00;;;26.70;99.90;;;;;;5030770;28;20465;-48
2022/08/10 08:16:30;;;;;;;2.03;1.90;;;26.90;99.90;;;;;;5030890;28;20927;-48
2022/08/10 08:18:57;;;;;;;3.93;2.03;;;27.20;99.90;;;;;;5031683;28;20432;-49
2022/08/10 08:21:24;;;;;;;2.53;2.07;;;27.60;99.90;;;;;;5031741;28;20973;-48
2022/08/10 08:23:50;;;;;;;7.70;2.70;;;27.70;99.90;;;;;;5031558;28;20765;-48
2022/08/10 08:26:20;;;;;;;3.83;2.17;;;27.90;99.90;;;;;;5031454;28;20432;-49
2022/08/10 08:28:47;;;;;;;6.27;2.20;;;28.00;99.90;;;;;;5031652;28;20468;-49
2022/08/10 08:31:14;;;;;;;7.03;1.80;;;28.30;99.90;;;;;;5033233;28;20508;-49
2022/08/10 08:33:42;;;;;;;4.23;2.00;;;28.40;99.90;;;;;;5051105;28;20429;-49
2022/08/10 08:36:09;;;;;;;3.90;1.80;;;28.50;99.90;;;;;;5051507;28;20778;-49
2022/08/10 08:38:36;;;;;;;4.47;2.30;;;28.80;99.90;;;;;;5051243;28;20420;-48
2022/08/10 08:41:16;;;;;;;6.07;1.90;;;29.10;99.90;;;;;;5051205;28;20455;-49
2022/08/10 08:44:13;;;;;;;7.67;2.33;;;29.30;99.90;;;;;;5051096;28;20926;-47
2022/08/10 08:46:57;;;;;;;3.40;2.20;;;29.30;99.90;;;;;;5051071;28;20417;-51
2022/08/10 08:49:47;;;;;;;1.80;1.70;;;29.20;99.90;;;;;;5051107;28;20447;-52
2022/08/10 08:52:31;;;;;;;4.60;1.70;;;29.30;99.90;;;;;;5050872;28;20484;-47
2022/08/10 08:55:17;;;;;;;2.73;1.70;;;29.50;99.90;;;;;;5051024;28;20433;-47
2022/08/10 08:57:50;;;;;;;6.10;1.63;;;29.50;99.90;;;;;;5051454;28;20404;-48
2022/08/10 09:00:28;;;;;;;2.17;1.67;;;29.80;99.90;;;;;;5052605;28;20462;-47
2022/08/10 09:03:15;;;;;;;2.70;1.60;;;30.00;99.90;;;;;;5052598;28;20417;-47
2022/08/10 09:05:53;;;;;;;3.97;2.17;;;30.10;99.90;;;;;;5052303;28;20862;-59
2022/08/10 09:09:00;;;;;;;6.53;2.00;;;30.20;99.90;;;;;;5052355;28;20424;-43
2022/08/10 09:12:03;;;;;;;1.50;1.40;;;30.40;99.90;;;;;;5052186;28;20464;-43
2022/08/10 09:14:37;;;;;;;4.73;1.57;;;30.00;99.90;;;;;;5052269;28;20419;-42
2022/08/10 09:17:14;;;;;;;2.80;1.60;;;29.80;99.90;;;;;;5052606;28;20488;-42
2022/08/10 09:19:59;;;;;;;1.97;1.50;;;29.70;99.90;;;;;;5052517;28;20491;-42
2022/08/10 09:22:34;;;;;;;3.33;1.43;;;29.70;99.90;;;;;;5052089;28;20500;-43
2022/08/10 09:25:14;;;;;;;2.47;1.43;;;29.60;99.90;;;;;;5052087;28;20416;-44
2022/08/10 09:27:42;;;;;;;2.27;1.57;;;29.60;99.90;;;;;;5052239;28;20832;-42
2022/08/10 09:30:09;;;;;;;3.10;1.77;;;29.80;99.90;;;;;;5052087;28;20409;-43
2022/08/10 09:32:50;;;;;;;2.67;1.40;;;30.10;99.90;;;;;;5052126;28;20428;-43
2022/08/10 09:35:35;;;;;;;2.20;1.33;;;30.40;99.90;;;;;;5051911;28;20385;-44
2022/08/10 09:38:13;;;;;;;1.50;1.40;;;30.40;99.90;;;;;;5052022;28;20404;-43
2022/08/10 09:40:56;;;;;;;4.13;1.40;;;30.50;99.90;;;;;;5052064;28;20421;-43
2022/08/10 09:43:34;;;;;;;1.50;1.40;;;30.40;99.90;;;;;;5052007;28;20443;-45
2022/08/10 09:46:02;;;;;;;4.80;1.40;;;30.30;99.90;;;;;;5052016;28;20754;-43
2022/08/10 09:48:39;;;;;;;1.60;1.10;;;30.30;99.90;;;;;;5052089;28;20855;-44
2022/08/10 09:51:16;;;;;;;2.23;1.60;;;30.10;99.90;;;;;;5051720;28;20464;-43
2022/08/10 09:53:59;;;;;;;1.60;1.50;;;29.70;99.90;;;;;;5051970;28;20468;-43
2022/08/10 09:56:48;;;;;;;2.80;1.30;;;29.70;99.90;;;;;;5052146;28;20425;-44
2022/08/10 09:59:39;;;;;;;3.13;1.30;;;29.90;99.90;;;;;;5012967;28;20452;-55
2022/08/10 10:02:27;;;;;;;1.60;1.23;;;29.70;99.90;;;;;;5049774;28;20449;-46
2022/08/10 10:04:56;;;;;;;2.50;1.43;;;29.60;99.90;;;;;;5054100;28;20412;-47
2022/08/10 10:07:26;;;;;;;1.17;1.10;;;29.70;99.90;;;;;;5041059;28;20557;-48
2022/08/10 10:10:10;;;;;;;2.07;1.10;;;29.90;99.90;;;;;;5030899;28;20499;-47
2022/08/10 10:12:42;;;;;;;2.90;1.40;;;29.80;99.90;;;;;;5033437;28;20484;-48
2022/08/10 10:15:26;;;;;;;1.27;1.17;;;29.70;99.90;;;;;;5033579;28;20433;-47
2022/08/10 10:17:55;;;;;;;2.73;1.27;;;29.40;99.90;;;;;;5034047;28;20402;-47
2022/08/10 10:20:41;;;;;;;2.03;1.00;;;29.70;99.90;;;;;;5033866;28;20719;-47
2022/08/10 10:23:15;;;;;;;1.83;1.10;;;30.20;99.90;;;;;;5022144;28;20472;-47
2022/08/10 10:25:58;;;;;;;1.30;1.20;;;30.40;99.90;;;;;;5032339;28;20437;-47
2022/08/10 10:28:23;;;;;;;1.63;1.27;;;30.70;99.90;;;;;;5032798;28;20472;-46
2022/08/10 10:31:14;;;;;;;1.67;1.33;;;31.00;99.90;;;;;;5033726;28;20493;-57
2022/08/10 10:34:00;;;;;;;1.83;1.50;;;31.30;99.90;;;;;;5032452;28;20195;-47
2022/08/10 10:36:27;;;;;;;3.73;1.40;;;31.60;99.90;;;;;;5033516;28;20421;-47
2022/08/10 10:38:55;;;;;;;1.67;1.20;;;31.80;99.90;;;;;;5032943;28;20421;-47
2022/08/10 10:41:49;;;;;;;2.53;1.27;;;31.70;99.90;;;;;;5033810;28;20418;-59
2022/08/10 10:44:31;;;;;;;1.93;1.17;;;32.00;99.90;;;;;;5033669;28;20418;-46
2022/08/10 10:47:09;;;;;;;1.20;1.10;;;32.20;99.90;;;;;;5032572;28;20561;-47
2022/08/10 10:49:51;;;;;;;1.27;1.17;;;32.50;99.90;;;;;;5031587;28;20437;-47
2022/08/10 10:52:31;;;;;;;2.57;1.20;;;32.60;99.90;;;;;;5031998;28;20485;-47
2022/08/10 10:55:24;;;;;;;1.30;1.20;;;32.60;99.90;;;;;;5015043;28;20450;-47
2022/08/10 10:58:05;;;;;;;1.67;1.10;;;32.60;99.90;;;;;;5032588;28;20779;-47
2022/08/10 11:00:44;;;;;;;4.03;1.57;;;32.40;99.90;;;;;;5031692;28;21006;-48
2022/08/10 11:03:45;;;;;;;1.87;1.37;;;32.00;99.90;;;;;;5033217;28;20406;-46
2022/08/10 11:06:44;;;;;;;1.23;1.10;;;32.50;99.90;;;;;;5032127;28;20433;-48
2022/08/10 11:09:16;;;;;;;1.70;1.30;;;33.00;99.90;;;;;;5032890;28;20414;-48
2022/08/10 11:11:44;;;;;;;3.37;1.10;;;33.00;99.90;;;;;;5033073;28;20465;-48
2022/08/10 11:14:28;;;;;;;1.20;1.10;;;33.30;99.90;;;;;;5032136;28;20437;-47
2022/08/10 11:17:17;;;;;;;1.67;1.00;;;33.70;99.90;;;;;;5031627;28;20417;-48
2022/08/10 11:20:11;;;;;;;1.20;1.07;;;33.90;99.90;;;;;;5030112;28;20437;-48
2022/08/10 11:22:58;;;;;;;1.50;1.30;;;33.70;99.90;;;;;;5031538;28;20475;-47
2022/08/10 11:25:30;;;;;;;2.10;1.10;;;33.90;99.90;;;;;;5029780;28;20889;-48
2022/08/10 11:28:24;;;;;;;1.40;1.23;;;33.70;99.90;;;;;;5031574;28;20476;-47
2022/08/10 11:31:16;;;;;;;2.27;1.30;;;33.90;99.90;;;;;;5027684;28;20795;-47
2022/08/10 11:34:21;;;;;;;2.30;1.37;;;33.60;99.90;;;;;;5028091;28;20492;-47
2022/08/10 11:36:52;;;;;;;1.63;1.00;;;34.10;99.90;;;;;;5031754;28;20962;-47
2022/08/10 11:39:39;;;;;;;3.37;1.30;;;34.20;99.90;;;;;;5014147;28;20418;-48
2022/08/10 11:42:14;;;;;;;2.20;1.30;;;34.40;99.90;;;;;;5033156;28;20422;-47
2022/08/10 11:44:55;;;;;;;2.50;0.93;;;34.20;99.90;;;;;;5041466;28;20467;-48
2022/08/10 11:47:31;;;;;;;1.23;1.13;;;33.90;99.90;;;;;;5034846;28;20594;-47
2022/08/10 11:50:20;;;;;;;2.40;1.00;;;34.00;99.90;;;;;;5030143;28;20444;-47
2022/08/10 11:53:07;;;;;;;1.33;1.20;;;34.20;99.90;;;;;;5031951;28;20533;-48
2022/08/10 11:55:33;;;;;;;1.00;1.00;;;33.70;99.90;;;;;;5039127;28;20480;-47
2022/08/10 11:59:55;;;;;;;1.40;1.30;;;33.80;99.90;;;;;;5051738;28;20487;-48
2022/08/10 12:01:00;;;;;;;1.37;1.23;;;34.10;99.90;;;;;;5051856;28;20421;-48
2022/08/10 12:03:30;;;;;;;1.97;0.90;;;34.40;99.90;;;;;;5042290;28;21009;-49
2022/08/10 12:05:57;;;;;;;1.10;1.00;;;34.50;99.90;;;;;;5032079;28;20453;-48
2022/08/10 12:08:25;;;;;;;1.20;1.10;;;34.60;99.90;;;;;;5049976;28;20464;-48
2022/08/10 12:10:53;;;;;;;4.10;1.20;;;34.70;99.90;;;;;;5031505;28;20453;-48
2022/08/10 12:13:25;;;;;;;2.20;1.30;;;34.50;99.90;;;;;;5032172;28;20423;-43
2022/08/10 12:16:11;;;;;;;1.00;0.90;;;34.40;99.90;;;;;;5013139;28;20496;-43
2022/08/10 12:18:48;;;;;;;1.87;1.23;;;34.70;99.90;;;;;;5030957;28;20904;-44
2022/08/10 12:21:32;;;;;;;1.23;1.00;;;34.40;99.90;;;;;;5043424;28;21004;-43
2022/08/10 12:24:08;;;;;;;5.90;1.10;;;34.40;99.90;;;;;;5048475;28;20467;-43
2022/08/10 12:26:41;;;;;;;0.90;0.80;;;34.40;99.90;;;;;;5031268;28;21085;-43
2022/08/10 12:29:25;;;;;;;2.60;1.00;;;34.70;99.90;;;;;;5031441;28;20406;-43
2022/08/10 12:32:10;;;;;;;4.00;1.10;;;34.90;99.90;;;;;;5031448;28;20453;-44
2022/08/10 12:35:11;;;;;;;1.53;1.43;;;35.20;99.90;;;;;;5030779;28;20441;-43
2022/08/10 12:37:49;;;;;;;3.47;1.17;;;35.40;99.90;;;;;;5031723;28;20449;-43
2022/08/10 12:40:22;;;;;;;1.87;1.00;;;35.70;99.90;;;;;;5027477;28;20417;-43
2022/08/10 12:43:07;;;;;;;3.83;0.97;;;35.90;99.90;;;;;;5027326;28;20433;-43
2022/08/10 12:46:04;;;;;;;2.70;1.00;;;35.80;99.90;;;;;;5030282;28;20433;-49
2022/08/10 12:49:07;;;;;;;5.03;1.50;;;35.60;99.90;;;;;;5015338;28;20460;-48
2022/08/10 12:51:36;;;;;;;1.13;1.00;;;35.30;99.90;;;;;;5030437;28;20805;-47
2022/08/10 12:54:20;;;;;;;1.13;1.03;;;35.40;99.90;;;;;;5000223;28;20494;-47
2022/08/10 12:57:02;;;;;;;2.30;1.10;;;35.40;99.90;;;;;;5011293;28;20837;-49
2022/08/10 12:59:30;;;;;;;2.23;1.20;;;35.50;99.90;;;;;;5012495;28;20405;-48
2022/08/10 13:01:57;;;;;;;1.67;1.10;;;35.30;99.90;;;;;;5030317;28;20449;-47
2022/08/10 13:04:37;;;;;;;1.53;1.27;;;35.30;99.90;;;;;;5031129;28;20414;-47
2022/08/10 13:07:04;;;;;;;1.40;1.20;;;35.20;99.90;;;;;;5031028;28;20420;-49
2022/08/10 13:09:31;;;;;;;1.10;1.00;;;35.20;99.90;;;;;;5030906;28;20492;-48
2022/08/10 13:12:14;;;;;;;2.27;1.40;;;35.10;99.90;;;;;;5030897;28;20461;-48
2022/08/10 13:14:49;;;;;;;2.00;1.20;;;35.00;99.90;;;;;;5030926;28;20456;-47
2022/08/10 13:17:23;;;;;;;1.20;1.10;;;35.10;99.90;;;;;;5029692;28;20451;-60
2022/08/10 13:19:51;;;;;;;2.23;1.10;;;35.00;99.90;;;;;;5030969;28;20758;-56
2022/08/10 13:22:19;;;;;;;2.27;1.30;;;35.20;99.90;;;;;;5030742;28;20402;-48